sensor_id;sensor_type;location;lat;lon;timestamp;pressure;altitude;pressure_sealevel;temperature;humidity
50384;BME280;36301;48.310;12.786;2023-11-22T00:00:13;96247.81;;;5.33;100.00
50384;BME280;36301;48.310;12.786;2023-11-22T00:02:40;96256.13;;;5.35;100.00
50384;BME280;36301;48.310;12.786;2023-11-22T00:05:07;96254.94;;;5.33;100.00
50384;BME280;36301;48.310;12.786;2023-11-22T00:07:33;96257.56;;;5.33;100.00
50384;BME280;36301;48.310;12.786;2023-11-22T00:10:00;96255.69;;;5.33;100.00
50384;BME280;36301;48.310;12.786;2023-11-22T00:12:27;96265.63;;;5.28;100.00
50384;BME280;36301;48.310;12.786;2023-11-22T00:14:54;96255.91;;;5.28;100.00
50384;BME280;36301;48.310;12.786;2023-11-22T00:17:21;96253.91;;;5.25;100.00
50384;BME280;36301;48.310;12.786;2023-11-22T00:19:48;96253.28;;;5.28;100.00
50384;BME280;36301;48.310;12.786;2023-11-22T00:22:14;96250.66;;;5.28;100.00
50384;BME280;36301;48.310;12.786;2023-11-22T00:24:41;96247.31;;;5.19;100.00
50384;BME280;36301;48.310;12.786;2023-11-22T00:27:08;96254.88;;;5.20;100.00
50384;BME280;36301;48.310;12.786;2023-11-22T00:29:36;96261.66;;;5.21;100.00
50384;BME280;36301;48.310;12.786;2023-11-22T00:32:03;96255.19;;;5.19;100.00
50384;BME280;36301;48.310;12.786;2023-11-22T00:34:31;96260.66;;;5.14;100.00
50384;BME280;36301;48.310;12.786;2023-11-22T00:36:57;96261.53;;;5.18;100.00
50384;BME280;36301;48.310;12.786;2023-11-22T00:39:24;96262.59;;;5.17;100.00
50384;BME280;36301;48.310;12.786;2023-11-22T00:41:51;96266.78;;;5.18;100.00
50384;BME280;36301;48.310;12.786;2023-11-22T00:44:17;96268.97;;;5.16;100.00
50384;BME280;36301;48.310;12.786;2023-11-22T00:46:44;96266.91;;;5.21;100.00
50384;BME280;36301;48.310;12.786;2023-11-22T00:49:12;96270.94;;;5.19;100.00
50384;BME280;36301;48.310;12.786;2023-11-22T00:51:39;96272.69;;;5.15;100.00
50384;BME280;36301;48.310;12.786;2023-11-22T00:54:06;96275.94;;;5.12;100.00
50384;BME280;36301;48.310;12.786;2023-11-22T00:56:32;96275.81;;;5.08;100.00
50384;BME280;36301;48.310;12.786;2023-11-22T00:58:59;96271.88;;;5.02;100.00
50384;BME280;36301;48.310;12.786;2023-11-22T01:01:26;96283.03;;;5.11;100.00
50384;BME280;36301;48.310;12.786;2023-11-22T01:03:53;96271.97;;;5.06;100.00
50384;BME280;36301;48.310;12.786;2023-11-22T01:06:19;96275.69;;;5.05;100.00
50384;BME280;36301;48.310;12.786;2023-11-22T01:08:46;96275.81;;;5.08;100.00
50384;BME280;36301;48.310;12.786;2023-11-22T01:11:14;96274.50;;;5.02;100.00
50384;BME280;36301;48.310;12.786;2023-11-22T01:13:41;96276.31;;;5.02;100.00
50384;BME280;36301;48.310;12.786;2023-11-22T01:16:10;96279.28;;;5.00;100.00
50384;BME280;36301;48.310;12.786;2023-11-22T01:18:36;96274.09;;;4.91;100.00
50384;BME280;36301;48.310;12.786;2023-11-22T01:21:05;96289.44;;;5.02;100.00
50384;BME280;36301;48.310;12.786;2023-11-22T01:23:32;96293.63;;;5.03;100.00
50384;BME280;36301;48.310;12.786;2023-11-22T01:25:59;96294.81;;;5.05;100.00
50384;BME280;36301;48.310;12.786;2023-11-22T01:28:26;96299.88;;;5.10;100.00
50384;BME280;36301;48.310;12.786;2023-11-22T01:30:54;96294.81;;;5.05;100.00
50384;BME280;36301;48.310;12.786;2023-11-22T01:33:23;96290.72;;;4.95;100.00
50384;BME280;36301;48.310;12.786;2023-11-22T01:35:50;96299.56;;;4.91;100.00
50384;BME280;36301;48.310;12.786;2023-11-22T01:38:16;96299.69;;;4.74;100.00
50384;BME280;36301;48.310;12.786;2023-11-22T01:40:46;96299.94;;;4.60;100.00
50384;BME280;36301;48.310;12.786;2023-11-22T01:43:14;96297.38;;;4.51;100.00
50384;BME280;36301;48.310;12.786;2023-11-22T01:45:41;96298.50;;;4.41;100.00
50384;BME280;36301;48.310;12.786;2023-11-22T01:48:08;96302.44;;;4.27;100.00
50384;BME280;36301;48.310;12.786;2023-11-22T01:50:40;96300.53;;;4.36;100.00
50384;BME280;36301;48.310;12.786;2023-11-22T01:53:10;96304.13;;;4.31;100.00
50384;BME280;36301;48.310;12.786;2023-11-22T01:55:42;96297.78;;;4.32;100.00
50384;BME280;36301;48.310;12.786;2023-11-22T01:58:10;96305.66;;;4.32;100.00
50384;BME280;36301;48.310;12.786;2023-11-22T02:00:57;96312.19;;;4.18;100.00
50384;BME280;36301;48.310;12.786;2023-11-22T02:03:24;96313.28;;;4.16;100.00
50384;BME280;36301;48.310;12.786;2023-11-22T02:05:51;96315.91;;;4.16;100.00
50384;BME280;36301;48.310;12.786;2023-11-22T02:08:19;96312.34;;;4.12;100.00
50384;BME280;36301;48.310;12.786;2023-11-22T02:10:45;96318.38;;;4.13;100.00
50384;BME280;36301;48.310;12.786;2023-11-22T02:13:15;96323.50;;;4.01;100.00
50384;BME280;36301;48.310;12.786;2023-11-22T02:15:42;96323.69;;;3.87;100.00
50384;BME280;36301;48.310;12.786;2023-11-22T02:18:09;96329.56;;;3.84;100.00
50384;BME280;36301;48.310;12.786;2023-11-22T02:20:39;96321.69;;;3.84;100.00
50384;BME280;36301;48.310;12.786;2023-11-22T02:23:08;96331.72;;;3.82;100.00
50384;BME280;36301;48.310;12.786;2023-11-22T02:25:38;96340.50;;;3.77;100.00
50384;BME280;36301;48.310;12.786;2023-11-22T02:28:05;96339.44;;;3.78;100.00
50384;BME280;36301;48.310;12.786;2023-11-22T02:30:35;96338.34;;;3.79;100.00
50384;BME280;36301;48.310;12.786;2023-11-22T02:33:03;96343.28;;;3.81;100.00
50384;BME280;36301;48.310;12.786;2023-11-22T02:35:31;96345.59;;;3.74;100.00
50384;BME280;36301;48.310;12.786;2023-11-22T02:37:59;96344.06;;;3.64;100.00
50384;BME280;36301;48.310;12.786;2023-11-22T02:40:26;96343.03;;;3.56;100.00
50384;BME280;36301;48.310;12.786;2023-11-22T02:42:54;96351.63;;;3.48;100.00
50384;BME280;36301;48.310;12.786;2023-11-22T02:45:25;96355.94;;;3.44;100.00
50384;BME280;36301;48.310;12.786;2023-11-22T02:47:52;96359.66;;;3.34;100.00
50384;BME280;36301;48.310;12.786;2023-11-22T02:50:19;96368.75;;;3.37;100.00
50384;BME280;36301;48.310;12.786;2023-11-22T02:52:45;96368.59;;;3.33;100.00
50384;BME280;36301;48.310;12.786;2023-11-22T02:55:12;96375.66;;;3.42;100.00
50384;BME280;36301;48.310;12.786;2023-11-22T02:57:39;96384.13;;;3.47;100.00
50384;BME280;36301;48.310;12.786;2023-11-22T03:00:07;96381.34;;;3.44;100.00
50384;BME280;36301;48.310;12.786;2023-11-22T03:02:35;96385.66;;;3.39;100.00
50384;BME280;36301;48.310;12.786;2023-11-22T03:05:01;96390.75;;;3.36;100.00
50384;BME280;36301;48.310;12.786;2023-11-22T03:07:29;96390.75;;;3.36;100.00
50384;BME280;36301;48.310;12.786;2023-11-22T03:09:55;96390.75;;;3.19;100.00
50384;BME280;36301;48.310;12.786;2023-11-22T03:12:22;96394.91;;;3.20;100.00
50384;BME280;36301;48.310;12.786;2023-11-22T03:14:49;96396.13;;;3.22;100.00
50384;BME280;36301;48.310;12.786;2023-11-22T03:17:16;96384.44;;;3.11;100.00
50384;BME280;36301;48.310;12.786;2023-11-22T03:19:42;96389.66;;;3.11;100.00
50384;BME280;36301;48.310;12.786;2023-11-22T03:22:10;96391.81;;;3.09;100.00
50384;BME280;36301;48.310;12.786;2023-11-22T03:24:37;96396.59;;;3.07;100.00
50384;BME280;36301;48.310;12.786;2023-11-22T03:27:04;96400.88;;;3.03;100.00
50384;BME280;36301;48.310;12.786;2023-11-22T03:29:32;96399.19;;;2.98;100.00
50384;BME280;36301;48.310;12.786;2023-11-22T03:32:00;96420.88;;;3.07;100.00
50384;BME280;36301;48.310;12.786;2023-11-22T03:34:26;96403.34;;;3.08;100.00
50384;BME280;36301;48.310;12.786;2023-11-22T03:36:53;96410.88;;;3.01;100.00
50384;BME280;36301;48.310;12.786;2023-11-22T03:39:19;96412.25;;;2.90;100.00
50384;BME280;36301;48.310;12.786;2023-11-22T03:41:46;96419.03;;;2.91;100.00
50384;BME280;36301;48.310;12.786;2023-11-22T03:44:12;96415.47;;;2.86;100.00
50384;BME280;36301;48.310;12.786;2023-11-22T03:46:39;96407.31;;;2.79;100.00
50384;BME280;36301;48.310;12.786;2023-11-22T03:49:06;96420.53;;;2.83;100.00
50384;BME280;36301;48.310;12.786;2023-11-22T03:51:33;96418.41;;;2.85;100.00
50384;BME280;36301;48.310;12.786;2023-11-22T03:54:00;96424.84;;;2.88;100.00
50384;BME280;36301;48.310;12.786;2023-11-22T03:56:26;96430.97;;;2.83;100.00
50384;BME280;36301;48.310;12.786;2023-11-22T03:58:53;96436.34;;;2.69;100.00
50384;BME280;36301;48.310;12.786;2023-11-22T04:01:19;96445.44;;;2.80;100.00
50384;BME280;36301;48.310;12.786;2023-11-22T04:03:47;96448.78;;;2.64;100.00
50384;BME280;36301;48.310;12.786;2023-11-22T04:06:18;96444.00;;;2.66;100.00
50384;BME280;36301;48.310;12.786;2023-11-22T04:08:46;96448.94;;;2.67;100.00
50384;BME280;36301;48.310;12.786;2023-11-22T04:11:13;96458.78;;;2.70;100.00
50384;BME280;36301;48.310;12.786;2023-11-22T04:13:40;96456.63;;;2.64;100.00
50384;BME280;36301;48.310;12.786;2023-11-22T04:16:07;96476.88;;;2.58;100.00
50384;BME280;36301;48.310;12.786;2023-11-22T04:18:35;96475.00;;;2.50;100.00
50384;BME280;36301;48.310;12.786;2023-11-22T04:21:02;96472.41;;;2.58;100.00
50384;BME280;36301;48.310;12.786;2023-11-22T04:23:31;96478.59;;;2.63;100.00
50384;BME280;36301;48.310;12.786;2023-11-22T04:26:01;96481.69;;;2.65;100.00
50384;BME280;36301;48.310;12.786;2023-11-22T04:28:29;96476.84;;;2.49;100.00
50384;BME280;36301;48.310;12.786;2023-11-22T04:30:59;96473.59;;;2.44;100.00
50384;BME280;36301;48.310;12.786;2023-11-22T04:33:25;96479.16;;;2.51;100.00
50384;BME280;36301;48.310;12.786;2023-11-22T04:35:54;96478.50;;;2.45;100.00
50384;BME280;36301;48.310;12.786;2023-11-22T04:38:21;96492.28;;;2.37;100.00
50384;BME280;36301;48.310;12.786;2023-11-22T04:40:48;96474.50;;;2.39;100.00
50384;BME280;36301;48.310;12.786;2023-11-22T04:43:15;96462.78;;;2.37;100.00
50384;BME280;36301;48.310;12.786;2023-11-22T04:45:41;96482.78;;;2.41;100.00
50384;BME280;36301;48.310;12.786;2023-11-22T04:48:08;96485.47;;;2.50;100.00
50384;BME280;36301;48.310;12.786;2023-11-22T04:50:36;96482.66;;;2.46;100.00
50384;BME280;36301;48.310;12.786;2023-11-22T04:53:03;96481.84;;;2.37;100.00
50384;BME280;36301;48.310;12.786;2023-11-22T04:55:29;96490.50;;;2.46;100.00
50384;BME280;36301;48.310;12.786;2023-11-22T04:57:56;96496.75;;;2.37;100.00
50384;BME280;36301;48.310;12.786;2023-11-22T05:00:22;96491.34;;;2.33;100.00
50384;BME280;36301;48.310;12.786;2023-11-22T05:02:52;96508.72;;;2.29;100.00
50384;BME280;36301;48.310;12.786;2023-11-22T05:05:18;96519.63;;;2.31;100.00
50384;BME280;36301;48.310;12.786;2023-11-22T05:07:45;96524.84;;;2.31;100.00
50384;BME280;36301;48.310;12.786;2023-11-22T05:10:11;96538.78;;;2.26;100.00
50384;BME280;36301;48.310;12.786;2023-11-22T05:12:38;96541.53;;;2.21;100.00
50384;BME280;36301;48.310;12.786;2023-11-22T05:15:06;96543.94;;;2.18;100.00
50384;BME280;36301;48.310;12.786;2023-11-22T05:17:33;96552.41;;;2.15;100.00
50384;BME280;36301;48.310;12.786;2023-11-22T05:20:00;96543.13;;;2.08;100.00
50384;BME280;36301;48.310;12.786;2023-11-22T05:22:26;96549.78;;;2.15;100.00
50384;BME280;36301;48.310;12.786;2023-11-22T05:24:53;96538.03;;;2.03;100.00
50384;BME280;36301;48.310;12.786;2023-11-22T05:27:19;96556.78;;;2.05;100.00
50384;BME280;36301;48.310;12.786;2023-11-22T05:29:46;96559.97;;;2.02;100.00
50384;BME280;36301;48.310;12.786;2023-11-22T05:32:20;96556.16;;;1.86;100.00
50384;BME280;36301;48.310;12.786;2023-11-22T05:34:47;96565.91;;;1.94;100.00
50384;BME280;36301;48.310;12.786;2023-11-22T05:37:14;96572.38;;;1.97;100.00
50384;BME280;36301;48.310;12.786;2023-11-22T05:39:41;96570.06;;;1.95;100.00
50384;BME280;36301;48.310;12.786;2023-11-22T05:42:07;96578.66;;;1.96;100.00
50384;BME280;36301;48.310;12.786;2023-11-22T05:44:34;96581.56;;;1.94;100.00
50384;BME280;36301;48.310;12.786;2023-11-22T05:47:00;96580.03;;;1.93;100.00
50384;BME280;36301;48.310;12.786;2023-11-22T05:49:27;96582.53;;;1.98;100.00
50384;BME280;36301;48.310;12.786;2023-11-22T05:51:53;96589.88;;;1.96;100.00
50384;BME280;36301;48.310;12.786;2023-11-22T05:54:20;96582.03;;;1.96;100.00
50384;BME280;36301;48.310;12.786;2023-11-22T05:56:46;96584.66;;;1.96;100.00
50384;BME280;36301;48.310;12.786;2023-11-22T05:59:13;96586.91;;;1.89;100.00
50384;BME280;36301;48.310;12.786;2023-11-22T06:01:39;96595.50;;;1.90;100.00
50384;BME280;36301;48.310;12.786;2023-11-22T06:04:06;96599.34;;;1.92;100.00
50384;BME280;36301;48.310;12.786;2023-11-22T06:06:36;96595.22;;;1.91;100.00
50384;BME280;36301;48.310;12.786;2023-11-22T06:09:03;96600.72;;;1.90;100.00
50384;BME280;36301;48.310;12.786;2023-11-22T06:11:31;96592.59;;;1.91;100.00
50384;BME280;36301;48.310;12.786;2023-11-22T06:13:58;96597.81;;;1.91;100.00
50384;BME280;36301;48.310;12.786;2023-11-22T06:16:25;96612.03;;;1.85;100.00
50384;BME280;36301;48.310;12.786;2023-11-22T06:18:51;96619.78;;;1.90;100.00
50384;BME280;36301;48.310;12.786;2023-11-22T06:21:18;96618.59;;;1.96;100.00
50384;BME280;36301;48.310;12.786;2023-11-22T06:23:45;96620.75;;;1.94;100.00
50384;BME280;36301;48.310;12.786;2023-11-22T06:26:12;96613.97;;;1.93;100.00
50384;BME280;36301;48.310;12.786;2023-11-22T06:28:38;96610.63;;;1.79;100.00
50384;BME280;36301;48.310;12.786;2023-11-22T06:31:05;96617.47;;;1.75;100.00
50384;BME280;36301;48.310;12.786;2023-11-22T06:33:32;96630.91;;;1.82;100.00
50384;BME280;36301;48.310;12.786;2023-11-22T06:35:58;96631.69;;;1.69;100.00
50384;BME280;36301;48.310;12.786;2023-11-22T06:38:25;96636.06;;;1.73;100.00
50384;BME280;36301;48.310;12.786;2023-11-22T06:40:51;96640.41;;;1.78;100.00
50384;BME280;36301;48.310;12.786;2023-11-22T06:43:18;96646.66;;;1.77;100.00
50384;BME280;36301;48.310;12.786;2023-11-22T06:45:44;96650.34;;;1.76;100.00
50384;BME280;36301;48.310;12.786;2023-11-22T06:48:11;96663.50;;;1.71;100.00
50384;BME280;36301;48.310;12.786;2023-11-22T06:50:38;96660.69;;;1.81;100.00
50384;BME280;36301;48.310;12.786;2023-11-22T06:53:06;96670.44;;;1.75;100.00
50384;BME280;36301;48.310;12.786;2023-11-22T06:55:32;96669.88;;;1.78;100.00
50384;BME280;36301;48.310;12.786;2023-11-22T06:57:59;96676.75;;;1.88;100.00
50384;BME280;36301;48.310;12.786;2023-11-22T07:00:26;96682.72;;;1.75;100.00
50384;BME280;36301;48.310;12.786;2023-11-22T07:02:54;96684.28;;;1.76;100.00
50384;BME280;36301;48.310;12.786;2023-11-22T07:05:20;96683.03;;;1.73;100.00
50384;BME280;36301;48.310;12.786;2023-11-22T07:07:47;96688.06;;;1.84;100.00
50384;BME280;36301;48.310;12.786;2023-11-22T07:10:16;96688.44;;;1.91;100.00
50384;BME280;36301;48.310;12.786;2023-11-22T07:12:42;96693.66;;;1.91;100.00
50384;BME280;36301;48.310;12.786;2023-11-22T07:15:10;96697.03;;;1.91;100.00
50384;BME280;36301;48.310;12.786;2023-11-22T07:17:36;96697.13;;;1.86;100.00
50384;BME280;36301;48.310;12.786;2023-11-22T07:20:04;96696.97;;;1.83;100.00
50384;BME280;36301;48.310;12.786;2023-11-22T07:22:35;96698.47;;;1.97;100.00
50384;BME280;36301;48.310;12.786;2023-11-22T07:25:02;96700.25;;;1.88;100.00
50384;BME280;36301;48.310;12.786;2023-11-22T07:27:29;96712.69;;;1.91;100.00
50384;BME280;36301;48.310;12.786;2023-11-22T07:29:55;96706.41;;;1.92;100.00
50384;BME280;36301;48.310;12.786;2023-11-22T07:32:22;96718.41;;;1.93;100.00
50384;BME280;36301;48.310;12.786;2023-11-22T07:34:49;96720.94;;;1.98;100.00
50384;BME280;36301;48.310;12.786;2023-11-22T07:37:15;96715.91;;;1.88;100.00
50384;BME280;36301;48.310;12.786;2023-11-22T07:39:44;96718.41;;;1.93;100.00
50384;BME280;36301;48.310;12.786;2023-11-22T07:42:11;96713.97;;;1.80;100.00
50384;BME280;36301;48.310;12.786;2023-11-22T07:44:38;96726.91;;;1.85;100.00
50384;BME280;36301;48.310;12.786;2023-11-22T07:47:06;96718.41;;;1.93;100.00
50384;BME280;36301;48.310;12.786;2023-11-22T07:49:38;96719.28;;;1.89;100.00
50384;BME280;36301;48.310;12.786;2023-11-22T07:52:05;96735.31;;;1.82;100.00
50384;BME280;36301;48.310;12.786;2023-11-22T07:54:32;96740.63;;;1.77;100.00
50384;BME280;36301;48.310;12.786;2023-11-22T07:56:59;96739.50;;;1.83;100.00
50384;BME280;36301;48.310;12.786;2023-11-22T07:59:26;96738.53;;;1.79;100.00
50384;BME280;36301;48.310;12.786;2023-11-22T08:01:52;96751.75;;;1.69;100.00
50384;BME280;36301;48.310;12.786;2023-11-22T08:04:20;96759.22;;;1.75;100.00
50384;BME280;36301;48.310;12.786;2023-11-22T08:06:47;96775.16;;;1.74;100.00
50384;BME280;36301;48.310;12.786;2023-11-22T08:09:14;96778.34;;;1.71;100.00
50384;BME280;36301;48.310;12.786;2023-11-22T08:11:43;96797.38;;;1.71;100.00
50384;BME280;36301;48.310;12.786;2023-11-22T08:14:09;96795.44;;;1.77;100.00
50384;BME280;36301;48.310;12.786;2023-11-22T08:16:36;96810.00;;;1.83;100.00
50384;BME280;36301;48.310;12.786;2023-11-22T08:19:05;96821.56;;;1.77;100.00
50384;BME280;36301;48.310;12.786;2023-11-22T08:21:31;96820.88;;;1.71;100.00
50384;BME280;36301;48.310;12.786;2023-11-22T08:23:59;96837.31;;;1.72;100.00
50384;BME280;36301;48.310;12.786;2023-11-22T08:26:26;96828.22;;;1.69;100.00
50384;BME280;36301;48.310;12.786;2023-11-22T08:28:53;96838.47;;;1.66;100.00
50384;BME280;36301;48.310;12.786;2023-11-22T08:31:21;96834.91;;;1.75;100.00
50384;BME280;36301;48.310;12.786;2023-11-22T08:33:48;96823.47;;;1.71;100.00
50384;BME280;36301;48.310;12.786;2023-11-22T08:36:15;96822.16;;;1.74;100.00
50384;BME280;36301;48.310;12.786;2023-11-22T08:38:41;96805.72;;;1.87;100.00
50384;BME280;36301;48.310;12.786;2023-11-22T08:41:09;96814.34;;;1.88;100.00
50384;BME280;36301;48.310;12.786;2023-11-22T08:43:40;96816.75;;;1.84;100.00
50384;BME280;36301;48.310;12.786;2023-11-22T08:46:07;96816.16;;;1.87;100.00
50384;BME280;36301;48.310;12.786;2023-11-22T08:48:40;96829.81;;;1.84;100.00
50384;BME280;36301;48.310;12.786;2023-11-22T08:51:08;96835.50;;;1.86;100.00
50384;BME280;36301;48.310;12.786;2023-11-22T08:53:36;96840.56;;;1.96;100.00
50384;BME280;36301;48.310;12.786;2023-11-22T08:56:04;96846.88;;;1.76;100.00
50384;BME280;36301;48.310;12.786;2023-11-22T08:58:39;96854.47;;;1.78;100.00
50384;BME280;36301;48.310;12.786;2023-11-22T09:01:07;96859.75;;;1.73;100.00
50384;BME280;36301;48.310;12.786;2023-11-22T09:03:34;96879.00;;;1.77;100.00
50384;BME280;36301;48.310;12.786;2023-11-22T09:06:01;96878.72;;;1.78;100.00
50384;BME280;36301;48.310;12.786;2023-11-22T09:08:29;96875.59;;;1.76;100.00
50384;BME280;36301;48.310;12.786;2023-11-22T09:10:57;96874.69;;;1.67;100.00
50384;BME280;36301;48.310;12.786;2023-11-22T09:13:23;96890.03;;;1.74;100.00
50384;BME280;36301;48.310;12.786;2023-11-22T09:15:51;96891.78;;;1.78;100.00
50384;BME280;36301;48.310;12.786;2023-11-22T09:18:17;96897.19;;;1.82;100.00
50384;BME280;36301;48.310;12.786;2023-11-22T09:20:44;96899.44;;;1.89;100.00
50384;BME280;36301;48.310;12.786;2023-11-22T09:23:11;96901.88;;;1.99;100.00
50384;BME280;36301;48.310;12.786;2023-11-22T09:25:40;96901.34;;;2.16;100.00
50384;BME280;36301;48.310;12.786;2023-11-22T09:28:07;96902.78;;;2.22;100.00
50384;BME280;36301;48.310;12.786;2023-11-22T09:30:35;96914.19;;;2.12;100.00
50384;BME280;36301;48.310;12.786;2023-11-22T09:33:06;96919.72;;;2.11;100.00
50384;BME280;36301;48.310;12.786;2023-11-22T09:35:34;96913.50;;;2.06;100.00
50384;BME280;36301;48.310;12.786;2023-11-22T09:38:03;96913.75;;;1.91;100.00
50384;BME280;36301;48.310;12.786;2023-11-22T09:40:30;96916.88;;;2.07;100.00
50384;BME280;36301;48.310;12.786;2023-11-22T09:42:58;96911.00;;;2.15;100.00
50384;BME280;36301;48.310;12.786;2023-11-22T09:45:26;96922.44;;;2.19;100.00
50384;BME280;36301;48.310;12.786;2023-11-22T09:47:54;96906.69;;;2.24;100.00
50384;BME280;36301;48.310;12.786;2023-11-22T09:53:14;96908.34;;;2.48;100.00
50384;BME280;36301;48.310;12.786;2023-11-22T09:55:46;96910.19;;;2.47;100.00
50384;BME280;36301;48.310;12.786;2023-11-22T09:58:12;96928.47;;;2.47;100.00
50384;BME280;36301;48.310;12.786;2023-11-22T10:00:40;96925.78;;;2.39;100.00
50384;BME280;36301;48.310;12.786;2023-11-22T10:03:07;96924.88;;;2.43;100.00
50384;BME280;36301;48.310;12.786;2023-11-22T10:05:41;96931.88;;;2.62;100.00
50384;BME280;36301;48.310;12.786;2023-11-22T10:08:08;96928.59;;;2.70;100.00
50384;BME280;36301;48.310;12.786;2023-11-22T10:10:36;96917.75;;;2.76;100.00
50384;BME280;36301;48.310;12.786;2023-11-22T10:13:03;96922.78;;;2.73;100.00
50384;BME280;36301;48.310;12.786;2023-11-22T10:15:30;96930.72;;;2.54;100.00
50384;BME280;36301;48.310;12.786;2023-11-22T10:17:59;96940.84;;;2.42;100.00
50384;BME280;36301;48.310;12.786;2023-11-22T10:23:02;96950.06;;;2.39;100.00
50384;BME280;36301;48.310;12.786;2023-11-22T10:25:28;96953.72;;;2.38;100.00
50384;BME280;36301;48.310;12.786;2023-11-22T10:27:55;96949.94;;;2.30;100.00
50384;BME280;36301;48.310;12.786;2023-11-22T10:30:22;96949.59;;;2.04;100.00
50384;BME280;36301;48.310;12.786;2023-11-22T10:32:48;96955.34;;;1.88;100.00
50384;BME280;36301;48.310;12.786;2023-11-22T10:35:16;96954.59;;;2.01;100.00
50384;BME280;36301;48.310;12.786;2023-11-22T10:37:43;96953.63;;;1.97;100.00
50384;BME280;36301;48.310;12.786;2023-11-22T10:40:13;96954.97;;;1.94;100.00
50384;BME280;36301;48.310;12.786;2023-11-22T10:42:42;96958.50;;;2.03;100.00
50384;BME280;36301;48.310;12.786;2023-11-22T10:45:13;96961.03;;;2.08;100.00
50384;BME280;36301;48.310;12.786;2023-11-22T10:47:42;96959.88;;;2.15;100.00
50384;BME280;36301;48.310;12.786;2023-11-22T10:50:09;96969.63;;;2.09;100.00
50384;BME280;36301;48.310;12.786;2023-11-22T10:52:41;96969.81;;;2.13;100.00
50384;BME280;36301;48.310;12.786;2023-11-22T10:55:11;96972.88;;;2.01;100.00
50384;BME280;36301;48.310;12.786;2023-11-22T10:57:45;96971.19;;;1.91;100.00
50384;BME280;36301;48.310;12.786;2023-11-22T11:00:19;96968.59;;;1.91;100.00
50384;BME280;36301;48.310;12.786;2023-11-22T11:02:53;96976.97;;;2.07;100.00
50384;BME280;36301;48.310;12.786;2023-11-22T11:05:21;96977.41;;;1.95;100.00
50384;BME280;36301;48.310;12.786;2023-11-22T11:08:10;96978.53;;;1.89;100.00
50384;BME280;36301;48.310;12.786;2023-11-22T11:10:41;96968.66;;;1.86;100.00
50384;BME280;36301;48.310;12.786;2023-11-22T11:13:09;96969.19;;;2.02;100.00
50384;BME280;36301;48.310;12.786;2023-11-22T11:15:39;96988.16;;;1.94;100.00
50384;BME280;36301;48.310;12.786;2023-11-22T11:18:07;96985.47;;;1.80;100.00
50384;BME280;36301;48.310;12.786;2023-11-22T11:23:14;96986.03;;;1.77;100.00
50384;BME280;36301;48.310;12.786;2023-11-22T11:25:41;97001.13;;;1.80;100.00
50384;BME280;36301;48.310;12.786;2023-11-22T11:28:12;97007.69;;;1.96;100.00
50384;BME280;36301;48.310;12.786;2023-11-22T11:33:06;96998.31;;;1.95;100.00
50384;BME280;36301;48.310;12.786;2023-11-22T11:35:46;96985.69;;;1.84;100.00
50384;BME280;36301;48.310;12.786;2023-11-22T11:38:14;97003.88;;;1.70;100.00
50384;BME280;36301;48.310;12.786;2023-11-22T11:40:42;97011.78;;;1.65;100.00
50384;BME280;36301;48.310;12.786;2023-11-22T11:43:12;97016.78;;;1.80;100.00
50384;BME280;36301;48.310;12.786;2023-11-22T11:45:40;97016.31;;;1.78;100.00
50384;BME280;36301;48.310;12.786;2023-11-22T11:48:13;97017.28;;;1.82;100.00
50384;BME280;36301;48.310;12.786;2023-11-22T11:50:46;97015.81;;;1.76;100.00
50384;BME280;36301;48.310;12.786;2023-11-22T11:53:13;97006.72;;;1.73;100.00
50384;BME280;36301;48.310;12.786;2023-11-22T11:55:39;97013.03;;;1.86;100.00
50384;BME280;36301;48.310;12.786;2023-11-22T11:58:07;97006.75;;;1.87;100.00
50384;BME280;36301;48.310;12.786;2023-11-22T12:00:36;96995.06;;;1.85;100.00
50384;BME280;36301;48.310;12.786;2023-11-22T12:03:10;96991.09;;;1.87;100.00
50384;BME280;36301;48.310;12.786;2023-11-22T12:05:37;96962.19;;;1.65;100.00
50384;BME280;36301;48.310;12.786;2023-11-22T12:08:05;96990.16;;;1.97;100.00
50384;BME280;36301;48.310;12.786;2023-11-22T12:10:31;96991.38;;;2.04;100.00
50384;BME280;36301;48.310;12.786;2023-11-22T12:12:58;96982.47;;;2.05;100.00
50384;BME280;36301;48.310;12.786;2023-11-22T12:15:25;96984.78;;;2.07;100.00
50384;BME280;36301;48.310;12.786;2023-11-22T12:17:52;96983.78;;;2.22;100.00
50384;BME280;36301;48.310;12.786;2023-11-22T12:20:23;96991.53;;;2.27;100.00
50384;BME280;36301;48.310;12.786;2023-11-22T12:22:52;96996.06;;;2.21;100.00
50384;BME280;36301;48.310;12.786;2023-11-22T12:25:19;96994.53;;;2.20;100.00
50384;BME280;36301;48.310;12.786;2023-11-22T12:27:47;96991.53;;;2.27;100.00
50384;BME280;36301;48.310;12.786;2023-11-22T12:30:28;96997.81;;;2.26;100.00
50384;BME280;36301;48.310;12.786;2023-11-22T12:32:56;97006.44;;;2.26;100.00
50384;BME280;36301;48.310;12.786;2023-11-22T12:35:22;97006.69;;;2.11;100.00
50384;BME280;36301;48.310;12.786;2023-11-22T12:37:50;97006.13;;;2.14;100.00
50384;BME280;36301;48.310;12.786;2023-11-22T12:40:19;97009.97;;;2.17;100.00
50384;BME280;36301;48.310;12.786;2023-11-22T12:42:50;97001.16;;;2.13;100.00
50384;BME280;36301;48.310;12.786;2023-11-22T12:45:20;97004.28;;;2.15;100.00
50384;BME280;36301;48.310;12.786;2023-11-22T12:47:47;97021.56;;;2.11;100.00
50384;BME280;36301;48.310;12.786;2023-11-22T12:52:58;97018.41;;;2.14;100.00
50384;BME280;36301;48.310;12.786;2023-11-22T12:55:25;97028.09;;;2.13;100.00
50384;BME280;36301;48.310;12.786;2023-11-22T12:57:57;97027.00;;;2.14;100.00
50384;BME280;36301;48.310;12.786;2023-11-22T13:00:25;97026.59;;;2.07;100.00
50384;BME280;36301;48.310;12.786;2023-11-22T13:02:52;97036.84;;;2.03;100.00
50384;BME280;36301;48.310;12.786;2023-11-22T13:05:29;97020.41;;;2.03;100.00